sensor_id;sensor_type;location;lat;lon;timestamp;pressure;altitude;pressure_sealevel;temperature;humidity
61500;BME280;47361;49.996;19.918;2023-06-26T00:00:52;98790.23;;;16.8;70
61500;BME280;47361;49.996;19.918;2023-06-26T00:01:52;98791.24;;;16.7;70
61500;BME280;47361;49.996;19.918;2023-06-26T00:02:52;98789.89;;;16.6;71
61500;BME280;47361;49.996;19.918;2023-06-26T00:04:52;98791.33;;;16.5;71
61500;BME280;47361;49.996;19.918;2023-06-26T00:09:53;98792.9;;;16.6;71
61500;BME280;47361;49.996;19.918;2023-06-26T00:10:52;98792.86;;;16.5;71
61500;BME280;47361;49.996;19.918;2023-06-26T00:11:52;98796.09;;;16.4;71
61500;BME280;47361;49.996;19.918;2023-06-26T00:12:52;98795.03;;;16.3;72
61500;BME280;47361;49.996;19.918;2023-06-26T00:15:52;98790.03;;;16.2;71
61500;BME280;47361;49.996;19.918;2023-06-26T00:17:52;98788.64;;;16.1;72
61500;BME280;47361;49.996;19.918;2023-06-26T00:22:53;98786.65999999999;;;16.0;72
61500;BME280;47361;49.996;19.918;2023-06-26T00:25:52;98793.62;;;15.9;72
61500;BME280;47361;49.996;19.918;2023-06-26T00:31:52;98791.95999999999;;;15.8;73
61500;BME280;47361;49.996;19.918;2023-06-26T00:34:53;98791.63;;;15.9;73
61500;BME280;47361;49.996;19.918;2023-06-26T00:40:52;98801.11;;;15.8;73
61500;BME280;47361;49.996;19.918;2023-06-26T00:42:53;98797.47;;;15.7;73
61500;BME280;47361;49.996;19.918;2023-06-26T00:44:53;98795.26;;;15.8;74
61500;BME280;47361;49.996;19.918;2023-06-26T00:47:53;98790.29000000001;;;15.7;73
61500;BME280;47361;49.996;19.918;2023-06-26T00:55:52;98788.84000000001;;;15.6;73
61500;BME280;47361;49.996;19.918;2023-06-26T00:56:52;98787.77;;;15.5;73
61500;BME280;47361;49.996;19.918;2023-06-26T00:57:53;98791.66;;;15.4;74
61500;BME280;47361;49.996;19.918;2023-06-26T01:01:53;98792.89;;;15.3;74
61500;BME280;47361;49.996;19.918;2023-06-26T01:05:53;98798.71;;;15.2;74
61500;BME280;47361;49.996;19.918;2023-06-26T01:11:53;98791.63;;;15.1;74
61500;BME280;47361;49.996;19.918;2023-06-26T01:13:53;98786.75;;;15.2;74
61500;BME280;47361;49.996;19.918;2023-06-26T01:16:53;98785.33;;;15.1;73
61500;BME280;47361;49.996;19.918;2023-06-26T01:17:53;98785.27;;;15.0;74
61500;BME280;47361;49.996;19.918;2023-06-26T01:26:53;98777.28;;;14.9;74
61500;BME280;47361;49.996;19.918;2023-06-26T01:41:53;98772.79999999999;;;14.8;74
61500;BME280;47361;49.996;19.918;2023-06-26T01:44:53;98768.62999999999;;;14.7;74
61500;BME280;47361;49.996;19.918;2023-06-26T01:47:53;98766.11;;;14.6;74
61500;BME280;47361;49.996;19.918;2023-06-26T01:55:53;98766.18999999999;;;14.5;75
61500;BME280;47361;49.996;19.918;2023-06-26T01:57:54;98766.88;;;14.4;75
61500;BME280;47361;49.996;19.918;2023-06-26T02:02:53;98766.56;;;14.3;75
61500;BME280;47361;49.996;19.918;2023-06-26T02:05:53;98767.66;;;14.2;75
61500;BME280;47361;49.996;19.918;2023-06-26T02:07:53;98767.76;;;14.1;76
61500;BME280;47361;49.996;19.918;2023-06-26T02:08:53;98765.36;;;14.2;75
61500;BME280;47361;49.996;19.918;2023-06-26T02:12:53;98764.58;;;14.1;75
61500;BME280;47361;49.996;19.918;2023-06-26T02:13:53;98766.0;;;14.2;75
61500;BME280;47361;49.996;19.918;2023-06-26T02:15:53;98761.56999999999;;;14.1;75
61500;BME280;47361;49.996;19.918;2023-06-26T02:21:53;98762.75;;;14.0;76
61500;BME280;47361;49.996;19.918;2023-06-26T02:25:53;98760.49;;;13.9;76
61500;BME280;47361;49.996;19.918;2023-06-26T02:34:53;98761.7;;;14.0;76
61500;BME280;47361;49.996;19.918;2023-06-26T02:36:53;98763.95999999999;;;14.1;76
61500;BME280;47361;49.996;19.918;2023-06-26T02:38:53;98759.17;;;14.2;76
61500;BME280;47361;49.996;19.918;2023-06-26T02:41:53;98766.78;;;14.3;75
61500;BME280;47361;49.996;19.918;2023-06-26T02:45:53;98769.34;;;14.2;74
61500;BME280;47361;49.996;19.918;2023-06-26T02:46:53;98767.89;;;14.1;75
61500;BME280;47361;49.996;19.918;2023-06-26T02:51:53;98764.92;;;14.0;75
61500;BME280;47361;49.996;19.918;2023-06-26T02:59:53;98771.48;;;14.1;75
61500;BME280;47361;49.996;19.918;2023-06-26T03:02:53;98767.85;;;14.0;75
61500;BME280;47361;49.996;19.918;2023-06-26T03:03:53;98765.08;;;14.1;75
61500;BME280;47361;49.996;19.918;2023-06-26T03:08:53;98767.88;;;14.2;75
61500;BME280;47361;49.996;19.918;2023-06-26T03:12:53;98766.78;;;14.3;75
61500;BME280;47361;49.996;19.918;2023-06-26T03:13:53;98768.15000000001;;;14.4;75
61500;BME280;47361;49.996;19.918;2023-06-26T03:14:53;98766.35;;;14.3;75
61500;BME280;47361;49.996;19.918;2023-06-26T03:18:53;98762.41;;;14.4;74
61500;BME280;47361;49.996;19.918;2023-06-26T03:19:53;98763.67;;;14.3;74
61500;BME280;47361;49.996;19.918;2023-06-26T03:21:53;98768.33;;;14.2;74
61500;BME280;47361;49.996;19.918;2023-06-26T03:28:53;98771.17;;;14.3;75
61500;BME280;47361;49.996;19.918;2023-06-26T03:33:53;98769.43;;;14.4;76
61500;BME280;47361;49.996;19.918;2023-06-26T03:34:53;98769.05;;;14.5;76
61500;BME280;47361;49.996;19.918;2023-06-26T03:38:53;98770.62;;;14.6;75
61500;BME280;47361;49.996;19.918;2023-06-26T03:39:53;98771.53;;;14.7;75
61500;BME280;47361;49.996;19.918;2023-06-26T03:43:53;98772.08;;;14.8;75
61500;BME280;47361;49.996;19.918;2023-06-26T03:45:53;98776.2;;;14.9;76
61500;BME280;47361;49.996;19.918;2023-06-26T03:48:53;98777.61;;;15.0;75
61500;BME280;47361;49.996;19.918;2023-06-26T03:52:53;98781.79000000001;;;14.9;75
61500;BME280;47361;49.996;19.918;2023-06-26T03:53:53;98779.47;;;15.0;75
61500;BME280;47361;49.996;19.918;2023-06-26T03:55:53;98776.31;;;14.9;75
61500;BME280;47361;49.996;19.918;2023-06-26T03:58:53;98778.42000000001;;;15.0;76
61500;BME280;47361;49.996;19.918;2023-06-26T04:00:53;98786.01999999999;;;14.9;76
61500;BME280;47361;49.996;19.918;2023-06-26T04:03:53;98787.13;;;15.0;77
61500;BME280;47361;49.996;19.918;2023-06-26T04:11:53;98786.01999999999;;;14.9;79
61500;BME280;47361;49.996;19.918;2023-06-26T04:13:53;98788.65;;;15.0;79
61500;BME280;47361;49.996;19.918;2023-06-26T04:15:53;98790.14;;;14.9;80
61500;BME280;47361;49.996;19.918;2023-06-26T04:18:53;98788.72;;;15.0;80
61500;BME280;47361;49.996;19.918;2023-06-26T04:19:53;98789.03;;;14.9;80
61500;BME280;47361;49.996;19.918;2023-06-26T04:21:53;98787.19;;;14.9;81
61500;BME280;47361;49.996;19.918;2023-06-26T04:22:53;98786.05;;;15.0;81
61500;BME280;47361;49.996;19.918;2023-06-26T04:25:53;98781.53;;;15.1;81
61500;BME280;47361;49.996;19.918;2023-06-26T04:28:53;98776.47;;;15.2;81
61500;BME280;47361;49.996;19.918;2023-06-26T04:31:53;98775.59999999999;;;15.3;81
61500;BME280;47361;49.996;19.918;2023-06-26T04:33:53;98774.64;;;15.4;80
61500;BME280;47361;49.996;19.918;2023-06-26T04:34:53;98776.95999999999;;;15.5;80
61500;BME280;47361;49.996;19.918;2023-06-26T04:37:53;98777.73;;;15.6;80
61500;BME280;47361;49.996;19.918;2023-06-26T04:38:53;98778.85;;;15.7;80
61500;BME280;47361;49.996;19.918;2023-06-26T04:44:53;98779.08;;;15.8;80
61500;BME280;47361;49.996;19.918;2023-06-26T04:48:53;98774.51999999999;;;15.9;80
61500;BME280;47361;49.996;19.918;2023-06-26T04:49:53;98776.81;;;16.0;80
61500;BME280;47361;49.996;19.918;2023-06-26T04:52:53;98772.92;;;16.1;79
61500;BME280;47361;49.996;19.918;2023-06-26T04:53:53;98776.15;;;16.2;79
61500;BME280;47361;49.996;19.918;2023-06-26T04:56:53;98777.23;;;16.3;79
61500;BME280;47361;49.996;19.918;2023-06-26T04:58:53;98778.59;;;16.4;78
61500;BME280;47361;49.996;19.918;2023-06-26T05:00:53;98781.94;;;16.5;78
61500;BME280;47361;49.996;19.918;2023-06-26T05:03:53;98778.03;;;16.6;78
61500;BME280;47361;49.996;19.918;2023-06-26T05:08:53;98777.08;;;16.7;77
61500;BME280;47361;49.996;19.918;2023-06-26T05:11:53;98773.24;;;16.8;77
61500;BME280;47361;49.996;19.918;2023-06-26T05:13:53;98775.72;;;16.9;76
61500;BME280;47361;49.996;19.918;2023-06-26T05:17:53;98775.7;;;17.0;76
61500;BME280;47361;49.996;19.918;2023-06-26T05:21:53;98779.78;;;17.1;75
61500;BME280;47361;49.996;19.918;2023-06-26T05:25:53;98780.1;;;17.2;73
61500;BME280;47361;49.996;19.918;2023-06-26T05:26:53;98781.56999999999;;;17.1;72
61500;BME280;47361;49.996;19.918;2023-06-26T05:27:53;98776.28;;;17.2;73
61500;BME280;47361;49.996;19.918;2023-06-26T05:28:53;98774.94;;;17.3;73
61500;BME280;47361;49.996;19.918;2023-06-26T05:30:53;98781.73000000001;;;17.4;73
61500;BME280;47361;49.996;19.918;2023-06-26T05:33:53;98779.0;;;17.5;71
61500;BME280;47361;49.996;19.918;2023-06-26T05:35:53;98779.54999999999;;;17.6;72
61500;BME280;47361;49.996;19.918;2023-06-26T05:38:53;98777.55;;;17.8;72
61500;BME280;47361;49.996;19.918;2023-06-26T05:42:53;98785.20999999999;;;17.9;71
61500;BME280;47361;49.996;19.918;2023-06-26T05:46:53;98783.56;;;18.0;71
61500;BME280;47361;49.996;19.918;2023-06-26T05:48:53;98781.89;;;18.1;70
61500;BME280;47361;49.996;19.918;2023-06-26T05:51:53;98775.05;;;18.2;70
61500;BME280;47361;49.996;19.918;2023-06-26T05:54:53;98776.15;;;18.3;70
61500;BME280;47361;49.996;19.918;2023-06-26T05:56:54;98777.89;;;18.2;69
61500;BME280;47361;49.996;19.918;2023-06-26T05:57:53;98779.42;;;18.3;69
61500;BME280;47361;49.996;19.918;2023-06-26T06:01:53;98778.23;;;18.4;69
61500;BME280;47361;49.996;19.918;2023-06-26T06:03:53;98777.37;;;18.5;69
61500;BME280;47361;49.996;19.918;2023-06-26T06:06:53;98776.53;;;18.6;69
61500;BME280;47361;49.996;19.918;2023-06-26T06:08:53;98775.09;;;18.7;68
61500;BME280;47361;49.996;19.918;2023-06-26T06:10:53;98772.92;;;18.8;68
61500;BME280;47361;49.996;19.918;2023-06-26T06:12:53;98771.83;;;18.9;67
61500;BME280;47361;49.996;19.918;2023-06-26T06:14:53;98774.43;;;19.0;67
61500;BME280;47361;49.996;19.918;2023-06-26T06:16:53;98771.84;;;19.1;68
61500;BME280;47361;49.996;19.918;2023-06-26T06:18:53;98775.01999999999;;;19.2;66
61500;BME280;47361;49.996;19.918;2023-06-26T06:20:53;98772.86;;;19.3;66
61500;BME280;47361;49.996;19.918;2023-06-26T06:23:53;98774.05;;;19.4;65
61500;BME280;47361;49.996;19.918;2023-06-26T06:24:53;98769.73000000001;;;19.3;64
61500;BME280;47361;49.996;19.918;2023-06-26T06:25:53;98772.46;;;19.4;65
61500;BME280;47361;49.996;19.918;2023-06-26T06:28:53;98770.47;;;19.5;64
61500;BME280;47361;49.996;19.918;2023-06-26T06:32:53;98770.48;;;19.6;64
61500;BME280;47361;49.996;19.918;2023-06-26T06:37:53;98767.3;;;19.7;64
61500;BME280;47361;49.996;19.918;2023-06-26T06:38:53;98763.78;;;19.8;63
61500;BME280;47361;49.996;19.918;2023-06-26T06:41:53;98766.25;;;19.9;64
61500;BME280;47361;49.996;19.918;2023-06-26T06:43:53;98768.37000000001;;;20.0;63
61500;BME280;47361;49.996;19.918;2023-06-26T06:45:53;98773.11;;;20.1;63
61500;BME280;47361;49.996;19.918;2023-06-26T06:47:53;98769.64;;;20.2;62
61500;BME280;47361;49.996;19.918;2023-06-26T06:51:53;98769.64;;;20.3;62
61500;BME280;47361;49.996;19.918;2023-06-26T06:52:53;98771.24;;;20.4;62
61500;BME280;47361;49.996;19.918;2023-06-26T06:58:53;98773.77;;;20.5;59
61500;BME280;47361;49.996;19.918;2023-06-26T07:01:53;98771.22;;;20.6;60
61500;BME280;47361;49.996;19.918;2023-06-26T07:03:53;98770.53;;;20.7;59
61500;BME280;47361;49.996;19.918;2023-06-26T07:07:53;98772.19;;;20.8;58
61500;BME280;47361;49.996;19.918;2023-06-26T07:08:53;98769.56;;;20.9;57
61500;BME280;47361;49.996;19.918;2023-06-26T07:13:53;98770.46;;;21.0;58
61500;BME280;47361;49.996;19.918;2023-06-26T07:15:53;98770.68000000001;;;21.1;59
61500;BME280;47361;49.996;19.918;2023-06-26T07:17:53;98767.92;;;21.2;58
61500;BME280;47361;49.996;19.918;2023-06-26T07:22:53;98766.06;;;21.3;56
61500;BME280;47361;49.996;19.918;2023-06-26T07:23:53;98771.28;;;21.4;57
61500;BME280;47361;49.996;19.918;2023-06-26T07:28:53;98769.31;;;21.5;55
61500;BME280;47361;49.996;19.918;2023-06-26T07:33:53;98761.91;;;21.6;56
61500;BME280;47361;49.996;19.918;2023-06-26T07:35:53;98761.73999999999;;;21.7;56
61500;BME280;47361;49.996;19.918;2023-06-26T07:37:53;98762.58;;;21.8;55
61500;BME280;47361;49.996;19.918;2023-06-26T07:38:53;98761.28;;;21.9;55
61500;BME280;47361;49.996;19.918;2023-06-26T07:43:53;98761.95;;;22.0;54
61500;BME280;47361;49.996;19.918;2023-06-26T07:47:53;98762.45;;;22.1;54
61500;BME280;47361;49.996;19.918;2023-06-26T07:48:53;98761.31;;;22.2;55
61500;BME280;47361;49.996;19.918;2023-06-26T07:50:53;98761.91;;;22.3;55
61500;BME280;47361;49.996;19.918;2023-06-26T07:51:53;98762.5;;;22.2;52
61500;BME280;47361;49.996;19.918;2023-06-26T07:52:53;98759.93999999999;;;22.3;51
61500;BME280;47361;49.996;19.918;2023-06-26T07:55:53;98764.06;;;22.4;53
61500;BME280;47361;49.996;19.918;2023-06-26T07:56:54;98760.25;;;22.3;52
61500;BME280;47361;49.996;19.918;2023-06-26T07:57:53;98760.88;;;22.4;52
61500;BME280;47361;49.996;19.918;2023-06-26T07:59:53;98762.8;;;22.5;54
61500;BME280;47361;49.996;19.918;2023-06-26T08:02:53;98760.36;;;22.6;51
61500;BME280;47361;49.996;19.918;2023-06-26T08:03:53;98762.58;;;22.5;52
61500;BME280;47361;49.996;19.918;2023-06-26T08:07:53;98762.51;;;22.6;51
61500;BME280;47361;49.996;19.918;2023-06-26T08:09:53;98760.33;;;22.7;51
61500;BME280;47361;49.996;19.918;2023-06-26T08:11:53;98759.16;;;22.8;49
61500;BME280;47361;49.996;19.918;2023-06-26T08:13:53;98758.76;;;22.9;52
61500;BME280;47361;49.996;19.918;2023-06-26T08:17:53;98754.04999999999;;;23.0;49
61500;BME280;47361;49.996;19.918;2023-06-26T08:20:53;98746.45000000001;;;22.9;45
61500;BME280;47361;49.996;19.918;2023-06-26T08:21:53;98745.51;;;23.0;46
61500;BME280;47361;49.996;19.918;2023-06-26T08:23:53;98747.88;;;23.1;47
61500;BME280;47361;49.996;19.918;2023-06-26T08:24:53;98745.59000000001;;;23.0;47
61500;BME280;47361;49.996;19.918;2023-06-26T08:26:53;98746.15;;;23.1;48
61500;BME280;47361;49.996;19.918;2023-06-26T08:28:53;98747.1;;;23.2;49
61500;BME280;47361;49.996;19.918;2023-06-26T08:32:53;98743.34;;;23.3;47
61500;BME280;47361;49.996;19.918;2023-06-26T08:33:53;98741.24;;;23.4;46
61500;BME280;47361;49.996;19.918;2023-06-26T08:37:53;98737.5;;;23.5;47
61500;BME280;47361;49.996;19.918;2023-06-26T08:38:54;98738.12000000001;;;23.6;46
61500;BME280;47361;49.996;19.918;2023-06-26T08:41:53;98736.01999999999;;;23.7;45
61500;BME280;47361;49.996;19.918;2023-06-26T08:42:53;98739.86;;;23.8;44
61500;BME280;47361;49.996;19.918;2023-06-26T08:47:53;98730.79000000001;;;23.9;43
61500;BME280;47361;49.996;19.918;2023-06-26T08:48:54;98733.65;;;24.0;44
61500;BME280;47361;49.996;19.918;2023-06-26T08:50:53;98727.66;;;24.1;43
61500;BME280;47361;49.996;19.918;2023-06-26T08:51:55;98730.55;;;24.2;43
61500;BME280;47361;49.996;19.918;2023-06-26T08:53:56;98730.35;;;24.3;44
61500;BME280;47361;49.996;19.918;2023-06-26T08:56:53;98730.5;;;24.4;42
61500;BME280;47361;49.996;19.918;2023-06-26T08:58:53;98732.5;;;24.5;44
61500;BME280;47361;49.996;19.918;2023-06-26T08:59:53;98727.37;;;24.6;43
61500;BME280;47361;49.996;19.918;2023-06-26T09:01:53;98725.58;;;24.7;42
61500;BME280;47361;49.996;19.918;2023-06-26T09:02:53;98723.6;;;24.8;42
61500;BME280;47361;49.996;19.918;2023-06-26T09:04:53;98722.09;;;24.7;40
61500;BME280;47361;49.996;19.918;2023-06-26T09:05:53;98724.95;;;24.6;42
61500;BME280;47361;49.996;19.918;2023-06-26T09:07:53;98727.25;;;24.7;44
61500;BME280;47361;49.996;19.918;2023-06-26T09:10:53;98722.28;;;24.8;44
61500;BME280;47361;49.996;19.918;2023-06-26T09:11:53;98725.45;;;24.7;44
61500;BME280;47361;49.996;19.918;2023-06-26T09:17:53;98720.2;;;24.8;42
61500;BME280;47361;49.996;19.918;2023-06-26T09:19:53;98720.03;;;24.9;42
61500;BME280;47361;49.996;19.918;2023-06-26T09:20:53;98718.51000000001;;;25.0;43
61500;BME280;47361;49.996;19.918;2023-06-26T09:21:53;98719.09000000001;;;25.1;44
61500;BME280;47361;49.996;19.918;2023-06-26T09:22:53;98719.4;;;25.2;42
61500;BME280;47361;49.996;19.918;2023-06-26T09:27:53;98717.56;;;25.3;41
61500;BME280;47361;49.996;19.918;2023-06-26T09:29:53;98718.65000000001;;;25.2;41
61500;BME280;47361;49.996;19.918;2023-06-26T09:32:53;98714.17;;;25.3;41
61500;BME280;47361;49.996;19.918;2023-06-26T09:34:53;98718.19;;;25.2;41
61500;BME280;47361;49.996;19.918;2023-06-26T09:35:53;98723.13;;;25.1;42
61500;BME280;47361;49.996;19.918;2023-06-26T09:37:53;98716.53;;;25.2;42
61500;BME280;47361;49.996;19.918;2023-06-26T09:38:53;98718.52;;;25.3;43
61500;BME280;47361;49.996;19.918;2023-06-26T09:40:53;98717.1;;;25.4;41
61500;BME280;47361;49.996;19.918;2023-06-26T09:42:53;98702.81;;;25.5;41
61500;BME280;47361;49.996;19.918;2023-06-26T09:45:53;98711.41;;;25.4;42
61500;BME280;47361;49.996;19.918;2023-06-26T09:46:54;98707.97;;;25.3;42
61500;BME280;47361;49.996;19.918;2023-06-26T09:47:53;98706.58;;;25.2;40
61500;BME280;47361;49.996;19.918;2023-06-26T09:48:57;98705.8;;;25.1;41
61500;BME280;47361;49.996;19.918;2023-06-26T09:49:53;98705.48999999999;;;24.9;40
61500;BME280;47361;49.996;19.918;2023-06-26T09:50:53;98707.95000000001;;;24.8;41
61500;BME280;47361;49.996;19.918;2023-06-26T09:51:53;98709.36;;;24.7;42
61500;BME280;47361;49.996;19.918;2023-06-26T09:57:53;98702.70000000001;;;25.0;41
61500;BME280;47361;49.996;19.918;2023-06-26T09:58:53;98705.44;;;25.1;41
61500;BME280;47361;49.996;19.918;2023-06-26T10:00:53;98704.72;;;25.2;41
61500;BME280;47361;49.996;19.918;2023-06-26T10:02:53;98701.81999999999;;;25.4;40
61500;BME280;47361;49.996;19.918;2023-06-26T10:03:53;98699.78;;;25.3;40
61500;BME280;47361;49.996;19.918;2023-06-26T10:05:53;98696.31000000001;;;25.4;42
61500;BME280;47361;49.996;19.918;2023-06-26T10:07:53;98695.09000000001;;;25.5;40
61500;BME280;47361;49.996;19.918;2023-06-26T10:09:53;98697.94;;;25.6;39
61500;BME280;47361;49.996;19.918;2023-06-26T10:10:53;98693.59;;;25.5;41
61500;BME280;47361;49.996;19.918;2023-06-26T10:11:54;98693.44;;;25.6;42
61500;BME280;47361;49.996;19.918;2023-06-26T10:12:54;98697.27;;;25.8;41
61500;BME280;47361;49.996;19.918;2023-06-26T10:14:53;98691.17;;;25.9;41
61500;BME280;47361;49.996;19.918;2023-06-26T10:16:53;98689.98;;;25.8;39
61500;BME280;47361;49.996;19.918;2023-06-26T10:18:53;98690.77;;;25.7;40
61500;BME280;47361;49.996;19.918;2023-06-26T10:20:53;98690.77;;;25.6;40
61500;BME280;47361;49.996;19.918;2023-06-26T10:21:54;98691.69;;;25.5;40
61500;BME280;47361;49.996;19.918;2023-06-26T10:23:53;98689.81;;;25.4;39
61500;BME280;47361;49.996;19.918;2023-06-26T10:24:53;98691.09;;;25.5;41
61500;BME280;47361;49.996;19.918;2023-06-26T10:29:54;98679.71;;;25.4;40
61500;BME280;47361;49.996;19.918;2023-06-26T10:30:53;98679.96;;;25.5;40
61500;BME280;47361;49.996;19.918;2023-06-26T10:37:02;98669.55;;;25.6;40
61500;BME280;47361;49.996;19.918;2023-06-26T10:37:54;98672.08;;;25.8;41
61500;BME280;47361;49.996;19.918;2023-06-26T10:38:54;98668.06;;;25.9;39
61500;BME280;47361;49.996;19.918;2023-06-26T10:39:53;98665.67;;;26.0;40
61500;BME280;47361;49.996;19.918;2023-06-26T10:41:54;98669.8;;;26.1;39
61500;BME280;47361;49.996;19.918;2023-06-26T10:45:54;98667.35;;;26.3;39
61500;BME280;47361;49.996;19.918;2023-06-26T10:47:53;98659.09;;;26.4;37
61500;BME280;47361;49.996;19.918;2023-06-26T10:48:56;98666.5;;;26.3;38
61500;BME280;47361;49.996;19.918;2023-06-26T10:49:53;98661.28;;;26.4;37
61500;BME280;47361;49.996;19.918;2023-06-26T10:50:53;98661.13;;;26.3;37
61500;BME280;47361;49.996;19.918;2023-06-26T10:51:53;98663.55;;;26.4;38
61500;BME280;47361;49.996;19.918;2023-06-26T10:53:54;98661.73999999999;;;26.6;39
61500;BME280;47361;49.996;19.918;2023-06-26T10:54:54;98659.48;;;26.7;38
61500;BME280;47361;49.996;19.918;2023-06-26T10:55:55;98657.9;;;26.8;40
61500;BME280;47361;49.996;19.918;2023-06-26T10:57:53;98657.76;;;26.9;38
61500;BME280;47361;49.996;19.918;2023-06-26T11:01:54;98654.72;;;26.8;36
61500;BME280;47361;49.996;19.918;2023-06-26T11:04:53;98658.5;;;26.6;38
61500;BME280;47361;49.996;19.918;2023-06-26T11:06:53;98660.33;;;26.4;37
61500;BME280;47361;49.996;19.918;2023-06-26T11:08:53;98657.68000000001;;;26.2;38
61500;BME280;47361;49.996;19.918;2023-06-26T11:09:54;98655.44;;;26.1;38
61500;BME280;47361;49.996;19.918;2023-06-26T11:10:54;98655.11;;;26.0;39
61500;BME280;47361;49.996;19.918;2023-06-26T11:11:55;98658.04000000001;;;25.9;39
61500;BME280;47361;49.996;19.918;2023-06-26T11:12:53;98652.57;;;26.0;39
61500;BME280;47361;49.996;19.918;2023-06-26T11:15:53;98653.5;;;26.1;40
61500;BME280;47361;49.996;19.918;2023-06-26T11:16:55;98655.29000000001;;;26.2;41
61500;BME280;47361;49.996;19.918;2023-06-26T11:18:53;98650.56;;;26.1;38
61500;BME280;47361;49.996;19.918;2023-06-26T11:19:53;98657.33;;;26.0;39
61500;BME280;47361;49.996;19.918;2023-06-26T11:22:53;98660.03;;;26.1;39
61500;BME280;47361;49.996;19.918;2023-06-26T11:23:53;98657.62;;;26.2;38
61500;BME280;47361;49.996;19.918;2023-06-26T11:25:53;98655.93000000001;;;26.1;38
61500;BME280;47361;49.996;19.918;2023-06-26T11:28:54;98658.88;;;25.9;38
61500;BME280;47361;49.996;19.918;2023-06-26T11:29:53;98663.64;;;25.8;38
61500;BME280;47361;49.996;19.918;2023-06-26T11:30:53;98661.31;;;25.7;39
61500;BME280;47361;49.996;19.918;2023-06-26T11:31:58;98662.92;;;25.6;39
61500;BME280;47361;49.996;19.918;2023-06-26T11:35:53;98661.81;;;25.7;41
61500;BME280;47361;49.996;19.918;2023-06-26T11:37:54;98665.36;;;25.8;40
61500;BME280;47361;49.996;19.918;2023-06-26T11:38:53;98661.22;;;25.9;40
61500;BME280;47361;49.996;19.918;2023-06-26T11:39:53;98661.08;;;26.0;41
61500;BME280;47361;49.996;19.918;2023-06-26T11:40:53;98659.86;;;26.2;41
61500;BME280;47361;49.996;19.918;2023-06-26T11:41:53;98656.52;;;26.3;39
61500;BME280;47361;49.996;19.918;2023-06-26T11:42:53;98653.3;;;26.4;39
61500;BME280;47361;49.996;19.918;2023-06-26T11:43:53;98655.05;;;26.5;39
61500;BME280;47361;49.996;19.918;2023-06-26T11:44:53;98656.61;;;26.6;39
61500;BME280;47361;49.996;19.918;2023-06-26T11:45:53;98646.74;;;26.7;39
61500;BME280;47361;49.996;19.918;2023-06-26T11:46:54;98647.19;;;26.8;41
61500;BME280;47361;49.996;19.918;2023-06-26T11:47:54;98648.46;;;27.0;39
61500;BME280;47361;49.996;19.918;2023-06-26T11:51:53;98649.25;;;26.9;35
61500;BME280;47361;49.996;19.918;2023-06-26T11:52:53;98645.45000000001;;;27.0;36
61500;BME280;47361;49.996;19.918;2023-06-26T11:54:53;98638.14;;;27.1;34
61500;BME280;47361;49.996;19.918;2023-06-26T11:55:53;98641.72;;;27.0;33
61500;BME280;47361;49.996;19.918;2023-06-26T11:56:54;98640.98;;;27.1;34
61500;BME280;47361;49.996;19.918;2023-06-26T11:57:54;98635.31;;;27.2;35
61500;BME280;47361;49.996;19.918;2023-06-26T11:58:56;98632.95000000001;;;27.3;36
61500;BME280;47361;49.996;19.918;2023-06-26T12:00:53;98633.1;;;27.4;33
61500;BME280;47361;49.996;19.918;2023-06-26T12:02:53;98629.54999999999;;;27.5;32
61500;BME280;47361;49.996;19.918;2023-06-26T12:03:58;98632.04;;;27.6;34
61500;BME280;47361;49.996;19.918;2023-06-26T12:05:53;98625.08;;;27.7;34
61500;BME280;47361;49.996;19.918;2023-06-26T12:06:53;98624.42;;;27.6;34
61500;BME280;47361;49.996;19.918;2023-06-26T12:08:53;98625.3;;;27.5;34
61500;BME280;47361;49.996;19.918;2023-06-26T12:09:53;98622.88;;;27.4;34
61500;BME280;47361;49.996;19.918;2023-06-26T12:10:53;98621.59;;;27.3;34
61500;BME280;47361;49.996;19.918;2023-06-26T12:13:53;98621.86;;;27.2;33
61500;BME280;47361;49.996;19.918;2023-06-26T12:14:53;98618.64;;;27.0;33
61500;BME280;47361;49.996;19.918;2023-06-26T12:15:53;98621.78;;;26.9;34
61500;BME280;47361;49.996;19.918;2023-06-26T12:16:53;98622.77;;;26.7;34
61500;BME280;47361;49.996;19.918;2023-06-26T12:17:53;98626.95;;;26.6;33
61500;BME280;47361;49.996;19.918;2023-06-26T12:19:53;98622.5;;;26.5;34
61500;BME280;47361;49.996;19.918;2023-06-26T12:20:53;98619.45;;;26.4;35
61500;BME280;47361;49.996;19.918;2023-06-26T12:23:57;98617.02;;;26.3;37
61500;BME280;47361;49.996;19.918;2023-06-26T12:24:56;98615.09;;;26.2;37
61500;BME280;47361;49.996;19.918;2023-06-26T12:25:53;98617.92;;;26.3;37
61500;BME280;47361;49.996;19.918;2023-06-26T12:26:54;98618.25;;;26.4;38
61500;BME280;47361;49.996;19.918;2023-06-26T12:27:53;98614.04;;;26.6;37
61500;BME280;47361;49.996;19.918;2023-06-26T12:28:53;98610.38;;;26.7;37
61500;BME280;47361;49.996;19.918;2023-06-26T12:29:53;98614.56;;;26.8;37
61500;BME280;47361;49.996;19.918;2023-06-26T12:31:53;98610.6;;;27.1;38
61500;BME280;47361;49.996;19.918;2023-06-26T12:32:53;98608.64;;;27.3;37
61500;BME280;47361;49.996;19.918;2023-06-26T12:34:53;98611.81;;;27.4;38
61500;BME280;47361;49.996;19.918;2023-06-26T12:35:53;98611.06;;;27.5;37
61500;BME280;47361;49.996;19.918;2023-06-26T12:36:53;98605.47;;;27.6;35
61500;BME280;47361;49.996;19.918;2023-06-26T12:37:53;98607.42;;;27.8;36
61500;BME280;47361;49.996;19.918;2023-06-26T12:40:53;98605.53;;;27.7;35
61500;BME280;47361;49.996;19.918;2023-06-26T12:43:55;98605.36;;;27.8;35
61500;BME280;47361;49.996;19.918;2023-06-26T12:44:53;98609.38;;;27.9;37
61500;BME280;47361;49.996;19.918;2023-06-26T12:45:54;98604.36;;;28.0;37
61500;BME280;47361;49.996;19.918;2023-06-26T12:46:54;98607.7;;;28.1;37
61500;BME280;47361;49.996;19.918;2023-06-26T12:47:53;98606.55;;;28.2;35